createdAt,value
2018-05-31T00:04:03.285Z,100686
2018-05-31T00:09:06.375Z,100688
2018-05-31T00:14:10.992Z,100681
2018-05-31T00:19:14.081Z,100680
2018-05-31T00:24:18.521Z,100686
2018-05-31T00:29:22.954Z,100694
2018-05-31T00:34:26.807Z,100694
2018-05-31T00:39:30.184Z,100700
2018-05-31T00:44:34.438Z,100709
2018-05-31T00:49:38.873Z,100711
2018-05-31T00:54:42.743Z,100711
2018-05-31T00:59:46.600Z,100711
2018-05-31T01:04:50.094Z,100708
2018-05-31T01:09:54.319Z,100711
2018-05-31T01:14:58.170Z,100715
2018-05-31T01:20:02.256Z,100721
2018-05-31T01:25:07.516Z,100741
2018-05-31T01:30:11.952Z,100726
2018-05-31T01:35:15.814Z,100730
2018-05-31T01:40:20.258Z,100720
2018-05-31T01:45:24.003Z,100727
2018-05-31T01:50:27.886Z,100717
2018-05-31T01:55:30.963Z,100712
2018-05-31T02:00:35.408Z,100702
2018-05-31T02:05:39.252Z,100707
2018-05-31T02:10:42.751Z,100703
2018-05-31T02:15:46.624Z,100700
2018-05-31T02:20:51.098Z,100706
2018-05-31T02:25:54.222Z,100699
2018-05-31T02:30:57.324Z,100710
2018-05-31T02:36:01.194Z,100703
2018-05-31T02:41:04.324Z,100702
2018-05-31T02:46:08.776Z,100711
2018-05-31T02:51:12.995Z,100725
2018-05-31T02:56:16.104Z,100732
2018-05-31T03:01:20.683Z,100731
2018-05-31T03:06:24.186Z,100737
2018-05-31T03:11:28.797Z,100738
2018-05-31T03:16:31.879Z,100739
2018-05-31T03:21:35.020Z,100736
2018-05-31T03:26:38.891Z,100732
2018-05-31T03:31:42.749Z,100733
2018-05-31T03:36:46.228Z,100733
2018-05-31T03:41:50.837Z,100730
2018-05-31T03:46:53.928Z,100728
2018-05-31T03:51:57.028Z,100730
2018-05-31T03:57:00.897Z,100729
2018-05-31T04:02:04.403Z,100734
2018-05-31T04:07:07.912Z,100735
2018-05-31T04:12:11.020Z,100729
2018-05-31T04:17:14.127Z,100729
2018-05-31T04:22:17.631Z,100728
2018-05-31T04:27:21.103Z,100726
2018-05-31T04:32:24.194Z,100736
2018-05-31T04:37:29.811Z,100743
2018-05-31T04:42:34.675Z,100732
2018-05-31T04:47:38.855Z,100718
2018-05-31T04:52:42.357Z,100723
2018-05-31T04:57:45.456Z,100731
2018-05-31T05:02:50.052Z,100732
2018-05-31T05:07:53.558Z,100736
2018-05-31T05:12:57.788Z,100741
2018-05-31T05:18:00.883Z,100745
2018-05-31T05:23:05.341Z,100749
2018-05-31T05:28:09.217Z,100751
2018-05-31T05:33:13.671Z,100758
2018-05-31T05:38:17.527Z,100766
2018-05-31T05:43:21.755Z,100760
2018-05-31T05:48:24.859Z,100758
2018-05-31T05:53:27.959Z,100754
2018-05-31T05:58:33.440Z,100754
2018-05-31T06:03:37.292Z,100762
2018-05-31T06:08:41.175Z,100772
2018-05-31T06:13:45.448Z,100774
2018-05-31T06:18:48.952Z,100772
2018-05-31T06:23:52.833Z,100773
2018-05-31T06:28:56.307Z,100777
2018-05-31T06:34:00.540Z,100784
2018-05-31T06:39:03.642Z,100784
2018-05-31T06:44:06.754Z,100781
2018-05-31T06:49:10.606Z,100778
2018-05-31T06:54:14.868Z,100783
2018-05-31T06:59:17.935Z,100787
2018-05-31T07:04:22.389Z,100793
2018-05-31T07:09:25.879Z,100794
2018-05-31T07:14:30.475Z,100801
2018-05-31T07:19:33.963Z,100800
2018-05-31T07:24:38.431Z,100807
2018-05-31T07:29:43.033Z,100805
2018-05-31T07:34:46.131Z,100800
2018-05-31T07:39:49.990Z,100796
2018-05-31T07:44:53.074Z,100797
2018-05-31T07:49:56.279Z,100800
2018-05-31T07:55:00.507Z,100810
2018-05-31T08:00:04.028Z,100803
2018-05-31T08:05:07.125Z,100813
2018-05-31T08:10:10.223Z,100816
2018-05-31T08:15:14.675Z,100813
2018-05-31T08:20:18.923Z,100814
2018-05-31T08:25:23.203Z,100822
2018-05-31T08:30:27.650Z,100829
2018-05-31T08:35:31.155Z,100839
2018-05-31T08:40:34.639Z,100834
2018-05-31T08:45:37.722Z,100835
2018-05-31T08:50:41.975Z,100836
2018-05-31T08:55:46.247Z,100844
2018-05-31T09:00:50.711Z,100850
2018-05-31T09:05:54.606Z,100851
2018-05-31T09:10:58.092Z,100869
2018-05-31T09:16:02.332Z,100886
2018-05-31T09:21:05.422Z,100873
2018-05-31T09:26:08.539Z,100853
2018-05-31T09:31:12.409Z,100863
2018-05-31T09:36:16.870Z,100863
2018-05-31T09:41:21.119Z,100860
2018-05-31T09:46:24.623Z,100856
2018-05-31T09:51:28.871Z,100861
2018-05-31T09:56:33.471Z,100868
2018-05-31T10:01:37.703Z,100868
2018-05-31T10:06:42.142Z,100862
2018-05-31T10:11:46.014Z,100859
2018-05-31T10:16:49.103Z,100856
2018-05-31T10:21:52.602Z,100852
2018-05-31T10:26:56.516Z,100850
2018-05-31T10:32:00.763Z,100849
2018-05-31T10:37:04.988Z,100851
2018-05-31T10:42:09.425Z,100838
2018-05-31T10:47:13.284Z,100836
2018-05-31T10:52:16.376Z,100834
2018-05-31T10:57:20.636Z,100823
2018-05-31T11:02:25.086Z,100821
2018-05-31T11:07:29.949Z,100821
2018-05-31T11:12:34.396Z,100810
2018-05-31T11:17:39.013Z,100808
2018-05-31T11:22:43.230Z,100812
2018-05-31T11:27:46.327Z,100819
2018-05-31T11:32:49.436Z,100820
2018-05-31T11:37:54.070Z,100816
2018-05-31T11:42:58.295Z,100819
2018-05-31T11:48:02.742Z,100812
2018-05-31T11:53:07.191Z,100805
2018-05-31T11:58:10.691Z,100808
2018-05-31T12:03:14.923Z,100794
2018-05-31T12:08:19.243Z,100789
2018-05-31T12:13:23.060Z,100793
2018-05-31T12:18:26.150Z,100788
2018-05-31T12:23:29.249Z,100786
2018-05-31T12:28:32.343Z,100783
2018-05-31T12:33:36.202Z,100790
2018-05-31T12:38:39.308Z,100800
2018-05-31T12:43:43.924Z,100799
2018-05-31T12:48:48.152Z,100791
2018-05-31T12:53:52.387Z,100792
2018-05-31T12:58:56.246Z,100789
2018-05-31T13:04:00.699Z,100771
2018-05-31T13:09:03.796Z,100766
2018-05-31T13:14:06.885Z,100759
2018-05-31T13:19:10.736Z,100762
2018-05-31T13:24:14.230Z,100755
2018-05-31T13:29:17.330Z,100737
2018-05-31T13:34:20.443Z,100724
2018-05-31T13:39:23.539Z,100716
2018-05-31T13:44:26.632Z,100723
2018-05-31T13:49:30.492Z,100723
2018-05-31T13:54:34.374Z,100721
2018-05-31T13:59:37.468Z,100726
2018-05-31T14:04:41.697Z,100733
2018-05-31T14:09:45.182Z,100727
2018-05-31T14:14:48.283Z,100720
2018-05-31T14:19:52.527Z,100716
2018-05-31T14:24:56.965Z,100714
2018-05-31T14:35:19.155Z,100708
2018-05-31T14:40:23.755Z,100716
2018-05-31T14:45:27.618Z,100713
2018-05-31T14:50:33.048Z,100712
2018-05-31T14:55:36.930Z,100706
2018-05-31T15:00:40.787Z,100698
2018-05-31T15:05:43.879Z,100689
2018-05-31T15:10:47.744Z,100689
2018-05-31T15:15:52.206Z,100690
2018-05-31T15:20:56.669Z,100684
2018-05-31T15:25:59.759Z,100678
2018-05-31T15:31:04.010Z,100680
2018-05-31T15:36:07.525Z,100675
2018-05-31T15:41:10.984Z,100663
2018-05-31T15:46:14.119Z,100657
2018-05-31T15:51:17.976Z,100654
2018-05-31T15:56:21.631Z,100660
2018-05-31T16:01:25.514Z,100653
2018-05-31T16:06:28.606Z,100654
2018-05-31T16:11:33.063Z,100645
2018-05-31T16:16:37.507Z,100645
2018-05-31T16:21:40.623Z,100635
2018-05-31T16:26:43.720Z,100630
2018-05-31T16:31:46.803Z,100630
2018-05-31T16:36:51.038Z,100630
2018-05-31T16:41:54.132Z,100618
2018-05-31T16:46:58.362Z,100624
2018-05-31T16:52:01.459Z,100624
2018-05-31T16:57:05.317Z,100630
2018-05-31T17:02:08.419Z,100634
2018-05-31T17:07:11.520Z,100642
2018-05-31T17:12:14.631Z,100652
2018-05-31T17:17:18.869Z,100651
2018-05-31T17:22:21.979Z,100649
2018-05-31T17:27:25.860Z,100649
2018-05-31T17:32:29.365Z,100652
2018-05-31T17:37:33.598Z,100656
2018-05-31T17:42:38.062Z,100662
2018-05-31T17:47:41.162Z,100662
2018-05-31T17:52:45.638Z,100662
2018-05-31T17:57:48.731Z,100660
2018-05-31T18:02:52.587Z,100658
2018-05-31T18:07:57.055Z,100666
2018-05-31T18:13:00.909Z,100664
2018-05-31T18:18:04.790Z,100655
2018-05-31T18:23:09.238Z,100675
2018-05-31T18:28:12.727Z,100667
2018-05-31T18:33:17.183Z,100661
2018-05-31T18:38:20.273Z,100659
2018-05-31T18:43:24.893Z,100654
2018-05-31T18:48:29.125Z,100647
2018-05-31T18:53:33.004Z,100666
2018-05-31T18:58:36.104Z,100682
2018-05-31T19:03:39.248Z,100696
2018-05-31T19:08:43.095Z,100722
2018-05-31T19:13:51.683Z,100728
2018-05-31T19:19:01.732Z,100734
2018-05-31T19:24:12.073Z,100737
2018-05-31T19:29:16.016Z,100745
2018-05-31T19:34:19.802Z,100762
2018-05-31T19:39:24.267Z,100774
2018-05-31T19:44:34.207Z,100783
2018-05-31T19:49:38.649Z,100786
2018-05-31T19:54:43.443Z,100795
2018-05-31T19:59:53.470Z,100805
2018-05-31T20:04:57.933Z,100799
2018-05-31T20:10:02.389Z,100801
2018-05-31T20:15:05.497Z,100803
2018-05-31T20:20:08.600Z,100794
2018-05-31T20:25:11.702Z,100790
2018-05-31T20:30:16.150Z,100791
2018-05-31T20:35:19.257Z,100779
2018-05-31T20:40:23.694Z,100787
2018-05-31T20:45:28.328Z,100789
2018-05-31T20:50:31.413Z,100782
2018-05-31T20:55:35.635Z,100785
2018-05-31T21:00:40.089Z,100786
2018-05-31T21:05:44.328Z,100782
2018-05-31T21:10:47.416Z,100778
2018-05-31T21:15:51.280Z,100772
2018-05-31T21:20:55.518Z,100769
2018-05-31T21:25:59.972Z,100766
2018-05-31T21:31:04.613Z,100771
2018-05-31T21:36:09.090Z,100781
2018-05-31T21:41:13.583Z,100778
2018-05-31T21:46:17.771Z,100774
2018-05-31T21:51:22.217Z,100774
2018-05-31T21:56:26.099Z,100770
2018-05-31T22:01:30.594Z,100769
2018-05-31T22:06:34.119Z,100765
2018-05-31T22:11:37.608Z,100757
2018-05-31T22:16:41.857Z,100759
2018-05-31T22:21:46.650Z,100759
2018-05-31T22:26:49.756Z,100750
2018-05-31T22:31:52.839Z,100759
2018-05-31T22:36:55.952Z,100771
2018-05-31T22:41:59.061Z,100762
2018-05-31T22:47:03.293Z,100756
2018-05-31T22:52:07.147Z,100756
2018-05-31T22:57:10.244Z,100756
2018-05-31T23:02:13.342Z,100753
2018-05-31T23:07:17.816Z,100743
2018-05-31T23:12:20.912Z,100751
2018-05-31T23:17:24.779Z,100745
2018-05-31T23:22:28.653Z,100751
2018-05-31T23:27:33.107Z,100734
2018-05-31T23:32:36.954Z,100739
2018-05-31T23:37:40.447Z,100750
2018-05-31T23:42:45.052Z,100748
2018-05-31T23:47:48.134Z,100751
2018-05-31T23:52:51.991Z,100747
2018-05-31T23:57:55.485Z,100760
